createdAt,value
2023-03-23T15:58:46.881Z,1.42
2023-03-23T16:01:17.196Z,1.17
2023-03-23T16:03:49.254Z,1.25
2023-03-23T16:06:23.418Z,1.38
2023-03-23T16:08:55.809Z,1.30
2023-03-23T16:11:25.888Z,1.60
2023-03-23T16:13:54.185Z,1.23
2023-03-23T16:16:24.546Z,1.20
2023-03-23T16:18:52.909Z,1.20
2023-03-23T16:21:21.276Z,1.30
2023-03-23T16:23:49.557Z,1.10
2023-03-23T16:26:19.506Z,1.02
2023-03-23T16:28:47.952Z,1.30
2023-03-23T16:31:16.287Z,1.45
2023-03-23T16:33:44.663Z,1.30
2023-03-23T16:36:13.531Z,1.45
2023-03-23T16:38:49.351Z,1.27
2023-03-23T16:41:20.792Z,1.27
2023-03-23T16:43:49.082Z,1.40
2023-03-23T16:46:17.771Z,1.30
2023-03-23T16:48:46.062Z,1.52
2023-03-23T16:51:14.336Z,1.30
2023-03-23T16:53:42.653Z,1.42
2023-03-23T16:56:10.964Z,1.30
2023-03-23T16:58:41.532Z,1.48
2023-03-23T17:03:37.924Z,1.58
2023-03-23T17:06:06.954Z,1.40
2023-03-23T17:08:35.307Z,1.63
2023-03-23T17:11:03.562Z,1.63
2023-03-23T17:13:31.857Z,1.48
2023-03-23T17:16:01.546Z,1.63
2023-03-23T17:18:29.794Z,1.85
2023-03-23T17:20:58.083Z,1.75
2023-03-23T17:23:26.506Z,1.88
2023-03-23T17:25:55.609Z,1.63
2023-03-23T17:28:23.916Z,1.58
2023-03-23T17:30:52.890Z,1.52
2023-03-23T17:33:22.545Z,1.70
2023-03-23T17:35:51.866Z,1.70
2023-03-23T17:38:20.625Z,1.60
2023-03-23T17:40:48.912Z,1.50
2023-03-23T17:43:17.237Z,1.60
2023-03-23T17:45:47.106Z,1.95
2023-03-23T17:48:15.767Z,1.80
2023-03-23T17:50:47.962Z,1.73
2023-03-23T17:53:18.493Z,1.80
2023-03-23T17:58:15.695Z,2.00
2023-03-23T18:00:44.030Z,2.03
2023-03-23T18:03:12.346Z,1.98
2023-03-23T18:05:40.661Z,1.90
2023-03-23T18:08:10.750Z,2.00
2023-03-23T18:10:40.320Z,1.92
2023-03-23T18:13:09.484Z,2.20
2023-03-23T18:15:38.397Z,2.13
2023-03-23T18:18:07.173Z,2.50
2023-03-23T18:20:35.626Z,2.33
2023-03-23T18:23:04.707Z,2.45
2023-03-23T18:25:34.679Z,2.20
2023-03-23T18:28:04.833Z,2.30
2023-03-23T18:30:35.708Z,2.40
2023-03-23T18:33:04.250Z,2.13
2023-03-23T18:35:32.664Z,2.03
2023-03-23T18:38:01.205Z,2.05
2023-03-23T18:40:29.459Z,2.30
2023-03-23T18:43:00.558Z,2.00
2023-03-23T18:45:29.041Z,3.10
2023-03-23T18:47:57.310Z,3.60
2023-03-23T18:50:25.860Z,2.58
2023-03-23T18:52:54.143Z,2.30
2023-03-23T18:55:23.834Z,2.22
2023-03-23T18:57:52.216Z,2.30
2023-03-23T19:00:22.460Z,2.42
2023-03-23T19:02:51.931Z,2.10
2023-03-23T19:05:21.620Z,2.10
2023-03-23T19:07:49.968Z,2.20
2023-03-23T19:10:18.258Z,1.95
2023-03-23T19:12:47.348Z,2.40
2023-03-23T19:15:17.326Z,2.00
2023-03-23T19:17:47.022Z,2.10
2023-03-23T19:20:26.960Z,2.03
2023-03-23T19:23:03.821Z,2.28
2023-03-23T19:25:32.629Z,2.03
2023-03-23T19:30:32.229Z,2.50
2023-03-23T19:33:01.979Z,2.20
2023-03-23T19:35:30.255Z,2.08
2023-03-23T19:37:58.534Z,2.47
2023-03-23T19:40:39.093Z,2.22
2023-03-23T19:43:09.380Z,2.47
2023-03-23T19:45:38.257Z,2.30
2023-03-23T19:48:08.004Z,2.40
2023-03-23T19:50:38.626Z,2.40
2023-03-23T19:53:07.331Z,2.40
2023-03-23T19:55:35.816Z,2.55
2023-03-23T19:58:04.092Z,2.72
2023-03-23T20:00:34.350Z,2.40
2023-03-23T20:03:03.805Z,2.20
2023-03-23T20:05:35.150Z,2.38
2023-03-23T20:08:04.754Z,2.10
2023-03-23T20:10:34.668Z,2.57
2023-03-23T20:13:02.987Z,2.47
2023-03-23T20:15:32.005Z,2.10
2023-03-23T20:18:00.930Z,2.47
2023-03-23T20:20:29.647Z,2.20
2023-03-23T20:22:59.208Z,2.30
2023-03-23T20:25:27.466Z,1.88
2023-03-23T20:27:55.767Z,2.03
2023-03-23T20:30:23.990Z,2.42
2023-03-23T20:32:53.595Z,2.55
2023-03-23T20:35:22.443Z,2.23
2023-03-23T20:37:52.678Z,2.45
2023-03-23T20:40:22.488Z,2.53
2023-03-23T20:42:52.692Z,1.90
2023-03-23T20:45:21.421Z,2.40
2023-03-23T20:47:49.711Z,2.35
2023-03-23T20:50:18.559Z,2.88
2023-03-23T20:52:48.031Z,2.80
2023-03-23T20:55:16.345Z,2.35
2023-03-23T20:57:45.922Z,2.60
2023-03-23T21:00:17.910Z,2.38
2023-03-23T21:02:49.789Z,2.72
2023-03-23T21:05:18.138Z,2.50
2023-03-23T21:07:46.715Z,2.60
2023-03-23T21:10:15.000Z,2.50
2023-03-23T21:12:43.254Z,2.85
2023-03-23T21:15:13.877Z,2.67
2023-03-23T21:17:42.102Z,2.65
2023-03-23T21:20:11.457Z,2.80
2023-03-23T21:22:39.731Z,2.70
2023-03-23T21:25:08.604Z,3.20
2023-03-23T21:27:37.342Z,2.72
2023-03-23T21:30:06.404Z,2.72
2023-03-23T21:32:36.371Z,2.65
2023-03-23T21:35:04.848Z,3.03
2023-03-23T21:37:33.641Z,3.15
2023-03-23T21:40:02.234Z,3.10
2023-03-23T21:42:31.134Z,3.22
2023-03-23T21:45:02.554Z,3.00
2023-03-23T21:47:31.351Z,3.53
2023-03-23T21:50:02.011Z,3.45
2023-03-23T21:52:31.048Z,3.83
2023-03-23T21:54:59.461Z,3.80
2023-03-23T21:57:27.691Z,3.17
2023-03-23T21:59:56.473Z,4.13
2023-03-23T22:02:24.907Z,4.03
2023-03-23T22:04:56.339Z,4.30
2023-03-23T22:07:27.696Z,5.07
2023-03-23T22:09:57.582Z,3.90
2023-03-23T22:12:26.214Z,4.07
2023-03-23T22:14:54.597Z,3.72
2023-03-23T22:17:22.981Z,3.80
2023-03-23T22:19:51.342Z,4.00
2023-03-23T22:22:20.135Z,4.03
2023-03-23T22:24:49.886Z,3.67
2023-03-23T22:27:18.371Z,3.88
2023-03-23T22:29:46.904Z,4.03
2023-03-23T22:32:15.409Z,3.70
2023-03-23T22:34:43.884Z,3.83
2023-03-23T22:37:12.204Z,3.53
2023-03-23T22:39:40.521Z,3.80
2023-03-23T22:42:12.372Z,3.83
2023-03-23T22:44:41.895Z,3.78
2023-03-23T22:47:10.231Z,3.88
2023-03-23T22:49:38.571Z,3.33
2023-03-23T22:52:06.944Z,3.13
2023-03-23T22:57:33.774Z,3.30
2023-03-23T23:00:02.150Z,3.75
2023-03-23T23:02:30.687Z,3.35
2023-03-23T23:04:59.148Z,3.15
2023-03-23T23:07:27.542Z,3.40
2023-03-23T23:09:55.872Z,3.25
2023-03-23T23:12:24.250Z,3.22
2023-03-23T23:14:53.972Z,3.10
2023-03-23T23:17:22.305Z,3.30
2023-03-23T23:19:50.655Z,3.25
2023-03-23T23:22:19.639Z,3.72
2023-03-23T23:24:48.497Z,3.40
2023-03-23T23:27:18.176Z,3.45
2023-03-23T23:29:46.572Z,3.33
2023-03-23T23:32:16.653Z,3.17
2023-03-23T23:34:44.997Z,3.40
2023-03-23T23:37:13.860Z,3.22
2023-03-23T23:39:42.610Z,3.63
2023-03-23T23:42:10.964Z,3.45
2023-03-23T23:44:39.557Z,3.20
2023-03-23T23:47:08.185Z,3.53
2023-03-23T23:49:38.500Z,3.53
2023-03-23T23:52:08.472Z,3.28
2023-03-23T23:54:37.603Z,3.40
2023-03-23T23:57:06.578Z,3.17
2023-03-23T23:59:34.988Z,3.10
